sensor_id;sensor_type;location;lat;lon;timestamp;P1;durP1;ratioP1;P2;durP2;ratioP2
11671;SDS011;5892;43.412;24.612;2022-09-09T00:01:54;6.30;;;5.70;;
11671;SDS011;5892;43.412;24.612;2022-09-09T00:04:28;5.80;;;5.20;;
11671;SDS011;5892;43.412;24.612;2022-09-09T00:06:58;7.90;;;5.17;;
11671;SDS011;5892;43.412;24.612;2022-09-09T00:09:31;6.20;;;5.40;;
11671;SDS011;5892;43.412;24.612;2022-09-09T00:12:04;8.87;;;5.27;;
11671;SDS011;5892;43.412;24.612;2022-09-09T00:14:40;8.73;;;5.53;;
11671;SDS011;5892;43.412;24.612;2022-09-09T00:17:17;5.70;;;5.10;;
11671;SDS011;5892;43.412;24.612;2022-09-09T00:19:59;5.80;;;5.30;;
11671;SDS011;5892;43.412;24.612;2022-09-09T00:22:35;7.57;;;5.53;;
11671;SDS011;5892;43.412;24.612;2022-09-09T00:25:08;7.13;;;5.37;;
11671;SDS011;5892;43.412;24.612;2022-09-09T00:27:39;8.80;;;5.60;;
11671;SDS011;5892;43.412;24.612;2022-09-09T00:30:15;5.90;;;5.40;;
11671;SDS011;5892;43.412;24.612;2022-09-09T00:32:46;6.70;;;5.30;;
11671;SDS011;5892;43.412;24.612;2022-09-09T00:35:16;5.83;;;5.20;;
11671;SDS011;5892;43.412;24.612;2022-09-09T00:37:45;6.70;;;5.50;;
11671;SDS011;5892;43.412;24.612;2022-09-09T00:40:18;6.00;;;5.50;;
11671;SDS011;5892;43.412;24.612;2022-09-09T00:42:52;7.80;;;5.37;;
11671;SDS011;5892;43.412;24.612;2022-09-09T00:45:39;5.90;;;5.40;;
11671;SDS011;5892;43.412;24.612;2022-09-09T00:48:24;6.83;;;5.33;;
11671;SDS011;5892;43.412;24.612;2022-09-09T00:51:02;6.60;;;5.67;;
11671;SDS011;5892;43.412;24.612;2022-09-09T00:53:38;7.73;;;5.53;;
11671;SDS011;5892;43.412;24.612;2022-09-09T00:56:12;9.73;;;5.57;;
11671;SDS011;5892;43.412;24.612;2022-09-09T00:58:42;8.03;;;5.70;;
11671;SDS011;5892;43.412;24.612;2022-09-09T01:01:10;7.37;;;5.47;;
11671;SDS011;5892;43.412;24.612;2022-09-09T01:03:40;7.53;;;5.63;;
11671;SDS011;5892;43.412;24.612;2022-09-09T01:06:14;8.70;;;5.50;;
11671;SDS011;5892;43.412;24.612;2022-09-09T01:08:58;6.30;;;5.70;;
11671;SDS011;5892;43.412;24.612;2022-09-09T01:11:33;7.53;;;5.47;;
11671;SDS011;5892;43.412;24.612;2022-09-09T01:14:14;7.80;;;6.03;;
11671;SDS011;5892;43.412;24.612;2022-09-09T01:16:51;6.17;;;5.67;;
11671;SDS011;5892;43.412;24.612;2022-09-09T01:19:27;8.03;;;5.93;;
11671;SDS011;5892;43.412;24.612;2022-09-09T01:22:12;6.63;;;5.17;;
11671;SDS011;5892;43.412;24.612;2022-09-09T01:24:55;8.43;;;5.40;;
11671;SDS011;5892;43.412;24.612;2022-09-09T01:27:37;6.80;;;5.23;;
11671;SDS011;5892;43.412;24.612;2022-09-09T01:30:07;7.50;;;5.27;;
11671;SDS011;5892;43.412;24.612;2022-09-09T01:32:40;6.97;;;5.33;;
11671;SDS011;5892;43.412;24.612;2022-09-09T01:35:10;5.93;;;5.40;;
11671;SDS011;5892;43.412;24.612;2022-09-09T01:37:41;6.13;;;5.27;;
11671;SDS011;5892;43.412;24.612;2022-09-09T01:40:08;7.40;;;5.40;;
11671;SDS011;5892;43.412;24.612;2022-09-09T01:42:35;8.07;;;5.47;;
11671;SDS011;5892;43.412;24.612;2022-09-09T01:45:04;6.43;;;5.30;;
11671;SDS011;5892;43.412;24.612;2022-09-09T01:47:31;7.93;;;5.20;;
11671;SDS011;5892;43.412;24.612;2022-09-09T01:49:58;6.10;;;5.43;;
11671;SDS011;5892;43.412;24.612;2022-09-09T01:52:27;6.10;;;5.50;;
11671;SDS011;5892;43.412;24.612;2022-09-09T01:54:55;7.20;;;5.90;;
11671;SDS011;5892;43.412;24.612;2022-09-09T01:57:23;7.70;;;6.00;;
11671;SDS011;5892;43.412;24.612;2022-09-09T02:00:00;6.77;;;5.90;;
11671;SDS011;5892;43.412;24.612;2022-09-09T02:02:35;8.63;;;6.23;;
11671;SDS011;5892;43.412;24.612;2022-09-09T02:05:09;6.30;;;5.70;;
11671;SDS011;5892;43.412;24.612;2022-09-09T02:07:45;6.47;;;5.80;;
11671;SDS011;5892;43.412;24.612;2022-09-09T02:10:15;6.40;;;5.60;;
11671;SDS011;5892;43.412;24.612;2022-09-09T02:12:47;6.03;;;5.53;;
11671;SDS011;5892;43.412;24.612;2022-09-09T02:15:21;8.07;;;5.50;;
11671;SDS011;5892;43.412;24.612;2022-09-09T02:17:54;5.97;;;5.37;;
11671;SDS011;5892;43.412;24.612;2022-09-09T02:20:24;18.30;;;6.10;;
11671;SDS011;5892;43.412;24.612;2022-09-09T02:22:53;13.83;;;6.20;;
11671;SDS011;5892;43.412;24.612;2022-09-09T02:25:22;6.10;;;5.50;;
11671;SDS011;5892;43.412;24.612;2022-09-09T02:27:52;11.20;;;6.40;;
11671;SDS011;5892;43.412;24.612;2022-09-09T02:30:19;11.07;;;5.70;;
11671;SDS011;5892;43.412;24.612;2022-09-09T02:32:46;7.03;;;5.37;;
11671;SDS011;5892;43.412;24.612;2022-09-09T02:35:19;11.97;;;5.97;;
11671;SDS011;5892;43.412;24.612;2022-09-09T02:37:51;7.37;;;5.83;;
11671;SDS011;5892;43.412;24.612;2022-09-09T02:40:21;7.63;;;5.50;;
11671;SDS011;5892;43.412;24.612;2022-09-09T02:42:48;8.73;;;6.10;;
11671;SDS011;5892;43.412;24.612;2022-09-09T02:45:16;6.50;;;6.00;;
11671;SDS011;5892;43.412;24.612;2022-09-09T02:47:47;6.30;;;5.70;;
11671;SDS011;5892;43.412;24.612;2022-09-09T02:50:22;8.70;;;6.07;;
11671;SDS011;5892;43.412;24.612;2022-09-09T02:52:57;8.10;;;6.40;;
11671;SDS011;5892;43.412;24.612;2022-09-09T02:55:35;7.83;;;6.20;;
11671;SDS011;5892;43.412;24.612;2022-09-09T02:58:05;7.43;;;5.70;;
11671;SDS011;5892;43.412;24.612;2022-09-09T03:00:35;6.40;;;5.80;;
11671;SDS011;5892;43.412;24.612;2022-09-09T03:03:02;9.73;;;6.13;;
11671;SDS011;5892;43.412;24.612;2022-09-09T03:05:31;7.83;;;6.27;;
11671;SDS011;5892;43.412;24.612;2022-09-09T03:07:58;9.10;;;5.80;;
11671;SDS011;5892;43.412;24.612;2022-09-09T03:10:25;7.60;;;6.20;;
11671;SDS011;5892;43.412;24.612;2022-09-09T03:12:51;7.47;;;5.67;;
11671;SDS011;5892;43.412;24.612;2022-09-09T03:15:18;6.63;;;5.20;;
11671;SDS011;5892;43.412;24.612;2022-09-09T03:17:47;7.13;;;5.53;;
11671;SDS011;5892;43.412;24.612;2022-09-09T03:20:13;6.27;;;5.67;;
11671;SDS011;5892;43.412;24.612;2022-09-09T03:22:42;6.77;;;5.60;;
11671;SDS011;5892;43.412;24.612;2022-09-09T03:25:10;9.00;;;5.80;;
11671;SDS011;5892;43.412;24.612;2022-09-09T03:27:36;7.37;;;5.73;;
11671;SDS011;5892;43.412;24.612;2022-09-09T03:30:04;6.23;;;5.20;;
11671;SDS011;5892;43.412;24.612;2022-09-09T03:32:31;6.53;;;5.07;;
11671;SDS011;5892;43.412;24.612;2022-09-09T03:34:58;8.57;;;6.00;;
11671;SDS011;5892;43.412;24.612;2022-09-09T03:37:25;5.63;;;5.00;;
11671;SDS011;5892;43.412;24.612;2022-09-09T03:39:53;7.23;;;5.70;;
11671;SDS011;5892;43.412;24.612;2022-09-09T03:42:20;7.93;;;6.50;;
11671;SDS011;5892;43.412;24.612;2022-09-09T03:44:47;8.20;;;6.43;;
11671;SDS011;5892;43.412;24.612;2022-09-09T03:47:16;13.90;;;6.87;;
11671;SDS011;5892;43.412;24.612;2022-09-09T03:49:44;65.60;;;8.80;;
11671;SDS011;5892;43.412;24.612;2022-09-09T03:52:11;22.20;;;7.50;;
11671;SDS011;5892;43.412;24.612;2022-09-09T03:54:38;11.63;;;7.10;;
11671;SDS011;5892;43.412;24.612;2022-09-09T03:57:09;12.53;;;6.63;;
11671;SDS011;5892;43.412;24.612;2022-09-09T03:59:36;12.83;;;6.73;;
11671;SDS011;5892;43.412;24.612;2022-09-09T04:02:03;11.70;;;6.27;;
11671;SDS011;5892;43.412;24.612;2022-09-09T04:04:30;8.93;;;6.30;;
11671;SDS011;5892;43.412;24.612;2022-09-09T04:06:57;12.10;;;6.20;;
11671;SDS011;5892;43.412;24.612;2022-09-09T04:09:24;8.63;;;6.00;;
11671;SDS011;5892;43.412;24.612;2022-09-09T04:11:51;12.00;;;5.97;;
11671;SDS011;5892;43.412;24.612;2022-09-09T04:14:20;10.60;;;6.13;;
11671;SDS011;5892;43.412;24.612;2022-09-09T04:16:47;9.53;;;6.47;;
11671;SDS011;5892;43.412;24.612;2022-09-09T04:19:14;8.43;;;6.23;;
11671;SDS011;5892;43.412;24.612;2022-09-09T04:21:41;10.70;;;6.33;;
11671;SDS011;5892;43.412;24.612;2022-09-09T04:24:08;8.97;;;5.93;;
11671;SDS011;5892;43.412;24.612;2022-09-09T04:26:35;11.33;;;5.80;;
11671;SDS011;5892;43.412;24.612;2022-09-09T04:29:03;8.33;;;6.20;;
11671;SDS011;5892;43.412;24.612;2022-09-09T04:31:33;17.90;;;5.93;;
11671;SDS011;5892;43.412;24.612;2022-09-09T04:34:00;15.53;;;6.03;;
11671;SDS011;5892;43.412;24.612;2022-09-09T04:36:30;12.03;;;6.37;;
11671;SDS011;5892;43.412;24.612;2022-09-09T04:38:58;17.17;;;6.40;;
11671;SDS011;5892;43.412;24.612;2022-09-09T04:41:26;13.23;;;7.20;;
11671;SDS011;5892;43.412;24.612;2022-09-09T04:43:52;19.63;;;8.60;;
11671;SDS011;5892;43.412;24.612;2022-09-09T04:46:19;14.63;;;7.40;;
11671;SDS011;5892;43.412;24.612;2022-09-09T04:48:49;12.60;;;7.00;;
11671;SDS011;5892;43.412;24.612;2022-09-09T04:51:16;16.20;;;7.07;;
11671;SDS011;5892;43.412;24.612;2022-09-09T04:53:43;17.07;;;6.87;;
11671;SDS011;5892;43.412;24.612;2022-09-09T04:56:12;23.27;;;6.70;;
11671;SDS011;5892;43.412;24.612;2022-09-09T04:58:40;16.17;;;6.80;;
11671;SDS011;5892;43.412;24.612;2022-09-09T05:01:08;17.50;;;6.60;;
11671;SDS011;5892;43.412;24.612;2022-09-09T05:03:36;20.23;;;6.53;;
11671;SDS011;5892;43.412;24.612;2022-09-09T05:06:09;18.47;;;6.70;;
11671;SDS011;5892;43.412;24.612;2022-09-09T05:08:37;12.73;;;6.07;;
11671;SDS011;5892;43.412;24.612;2022-09-09T05:11:12;19.60;;;6.23;;
11671;SDS011;5892;43.412;24.612;2022-09-09T05:13:40;18.17;;;6.63;;
11671;SDS011;5892;43.412;24.612;2022-09-09T05:16:07;13.23;;;7.00;;
11671;SDS011;5892;43.412;24.612;2022-09-09T05:18:36;13.03;;;6.67;;
11671;SDS011;5892;43.412;24.612;2022-09-09T05:21:03;13.63;;;6.10;;
11671;SDS011;5892;43.412;24.612;2022-09-09T05:23:32;19.43;;;6.67;;
11671;SDS011;5892;43.412;24.612;2022-09-09T05:25:59;15.10;;;6.83;;
11671;SDS011;5892;43.412;24.612;2022-09-09T05:28:27;16.93;;;6.83;;
11671;SDS011;5892;43.412;24.612;2022-09-09T05:30:57;24.10;;;6.70;;
11671;SDS011;5892;43.412;24.612;2022-09-09T05:33:25;13.70;;;5.83;;
11671;SDS011;5892;43.412;24.612;2022-09-09T05:35:56;10.70;;;5.40;;
11671;SDS011;5892;43.412;24.612;2022-09-09T05:38:24;14.87;;;5.67;;
11671;SDS011;5892;43.412;24.612;2022-09-09T05:40:52;11.70;;;5.17;;
11671;SDS011;5892;43.412;24.612;2022-09-09T05:43:20;9.67;;;5.10;;
11671;SDS011;5892;43.412;24.612;2022-09-09T05:45:47;10.93;;;5.17;;
11671;SDS011;5892;43.412;24.612;2022-09-09T05:48:27;10.40;;;5.00;;
11671;SDS011;5892;43.412;24.612;2022-09-09T05:50:55;12.30;;;4.70;;
11671;SDS011;5892;43.412;24.612;2022-09-09T05:53:22;8.50;;;4.27;;
11671;SDS011;5892;43.412;24.612;2022-09-09T05:55:48;8.73;;;4.20;;
11671;SDS011;5892;43.412;24.612;2022-09-09T05:58:17;10.77;;;4.40;;
11671;SDS011;5892;43.412;24.612;2022-09-09T06:00:44;8.37;;;4.50;;
11671;SDS011;5892;43.412;24.612;2022-09-09T06:03:11;9.17;;;4.00;;
11671;SDS011;5892;43.412;24.612;2022-09-09T06:05:38;14.00;;;4.77;;
11671;SDS011;5892;43.412;24.612;2022-09-09T06:08:04;9.93;;;4.90;;
11671;SDS011;5892;43.412;24.612;2022-09-09T06:10:32;11.53;;;4.40;;
11671;SDS011;5892;43.412;24.612;2022-09-09T06:12:59;15.50;;;5.20;;
11671;SDS011;5892;43.412;24.612;2022-09-09T06:15:28;11.87;;;5.03;;
11671;SDS011;5892;43.412;24.612;2022-09-09T06:17:55;10.70;;;4.50;;
11671;SDS011;5892;43.412;24.612;2022-09-09T06:20:22;10.07;;;4.23;;
11671;SDS011;5892;43.412;24.612;2022-09-09T06:22:49;8.73;;;4.37;;
11671;SDS011;5892;43.412;24.612;2022-09-09T06:25:16;11.40;;;4.77;;
11671;SDS011;5892;43.412;24.612;2022-09-09T06:27:47;15.17;;;4.80;;
11671;SDS011;5892;43.412;24.612;2022-09-09T06:30:16;10.33;;;4.53;;
11671;SDS011;5892;43.412;24.612;2022-09-09T06:32:45;11.23;;;4.63;;
11671;SDS011;5892;43.412;24.612;2022-09-09T06:35:12;16.73;;;5.30;;
11671;SDS011;5892;43.412;24.612;2022-09-09T06:37:44;9.97;;;5.00;;
11671;SDS011;5892;43.412;24.612;2022-09-09T06:40:13;8.27;;;5.03;;
11671;SDS011;5892;43.412;24.612;2022-09-09T06:42:41;15.53;;;7.13;;
11671;SDS011;5892;43.412;24.612;2022-09-09T06:45:08;18.40;;;7.70;;
11671;SDS011;5892;43.412;24.612;2022-09-09T06:47:36;30.23;;;8.27;;
11671;SDS011;5892;43.412;24.612;2022-09-09T06:50:04;24.30;;;7.63;;
11671;SDS011;5892;43.412;24.612;2022-09-09T06:52:32;15.47;;;6.43;;
11671;SDS011;5892;43.412;24.612;2022-09-09T06:54:59;16.73;;;5.80;;
11671;SDS011;5892;43.412;24.612;2022-09-09T06:57:26;17.27;;;6.43;;
11671;SDS011;5892;43.412;24.612;2022-09-09T06:59:53;16.47;;;5.60;;
11671;SDS011;5892;43.412;24.612;2022-09-09T07:02:20;10.30;;;5.07;;
11671;SDS011;5892;43.412;24.612;2022-09-09T07:04:47;9.57;;;4.50;;
11671;SDS011;5892;43.412;24.612;2022-09-09T07:07:16;10.50;;;3.70;;
11671;SDS011;5892;43.412;24.612;2022-09-09T07:09:44;13.03;;;3.73;;
11671;SDS011;5892;43.412;24.612;2022-09-09T07:12:11;10.63;;;3.80;;
11671;SDS011;5892;43.412;24.612;2022-09-09T07:14:38;6.73;;;3.10;;
11671;SDS011;5892;43.412;24.612;2022-09-09T07:17:05;5.53;;;3.07;;
11671;SDS011;5892;43.412;24.612;2022-09-09T07:19:32;10.80;;;3.50;;
11671;SDS011;5892;43.412;24.612;2022-09-09T07:21:59;6.73;;;3.37;;
11671;SDS011;5892;43.412;24.612;2022-09-09T07:24:29;10.40;;;3.10;;
11671;SDS011;5892;43.412;24.612;2022-09-09T07:26:55;9.33;;;3.20;;
11671;SDS011;5892;43.412;24.612;2022-09-09T07:29:22;5.50;;;2.90;;
11671;SDS011;5892;43.412;24.612;2022-09-09T07:31:49;4.83;;;3.17;;
11671;SDS011;5892;43.412;24.612;2022-09-09T07:34:16;6.47;;;2.93;;
11671;SDS011;5892;43.412;24.612;2022-09-09T07:36:43;6.73;;;3.07;;
11671;SDS011;5892;43.412;24.612;2022-09-09T07:39:12;7.37;;;3.37;;
11671;SDS011;5892;43.412;24.612;2022-09-09T07:41:44;8.23;;;3.00;;
11671;SDS011;5892;43.412;24.612;2022-09-09T07:44:12;5.57;;;3.20;;
11671;SDS011;5892;43.412;24.612;2022-09-09T07:46:40;7.33;;;3.27;;
11671;SDS011;5892;43.412;24.612;2022-09-09T07:49:08;7.43;;;3.00;;
11671;SDS011;5892;43.412;24.612;2022-09-09T07:51:36;5.10;;;2.60;;
11671;SDS011;5892;43.412;24.612;2022-09-09T07:54:06;7.33;;;3.37;;
11671;SDS011;5892;43.412;24.612;2022-09-09T07:56:34;5.60;;;3.13;;
11671;SDS011;5892;43.412;24.612;2022-09-09T07:59:03;5.78;;;3.15;;
11671;SDS011;5892;43.412;24.612;2022-09-09T08:01:32;7.63;;;3.00;;
11671;SDS011;5892;43.412;24.612;2022-09-09T08:04:05;7.70;;;2.70;;
11671;SDS011;5892;43.412;24.612;2022-09-09T08:06:36;6.87;;;3.03;;
11671;SDS011;5892;43.412;24.612;2022-09-09T08:09:04;8.95;;;3.25;;
11671;SDS011;5892;43.412;24.612;2022-09-09T08:11:32;9.98;;;3.35;;
11671;SDS011;5892;43.412;24.612;2022-09-09T08:14:01;9.15;;;3.75;;
11671;SDS011;5892;43.412;24.612;2022-09-09T08:16:32;7.35;;;3.22;;
11671;SDS011;5892;43.412;24.612;2022-09-09T08:19:01;8.65;;;3.30;;
11671;SDS011;5892;43.412;24.612;2022-09-09T08:21:30;7.27;;;2.90;;
11671;SDS011;5892;43.412;24.612;2022-09-09T08:23:59;8.23;;;3.25;;
11671;SDS011;5892;43.412;24.612;2022-09-09T08:26:27;4.50;;;2.90;;
11671;SDS011;5892;43.412;24.612;2022-09-09T08:28:56;7.80;;;3.00;;
11671;SDS011;5892;43.412;24.612;2022-09-09T08:31:24;7.20;;;3.17;;
11671;SDS011;5892;43.412;24.612;2022-09-09T08:33:54;4.82;;;3.08;;
11671;SDS011;5892;43.412;24.612;2022-09-09T08:36:23;6.00;;;2.90;;
11671;SDS011;5892;43.412;24.612;2022-09-09T08:38:52;13.23;;;3.20;;
11671;SDS011;5892;43.412;24.612;2022-09-09T08:41:31;6.45;;;2.72;;
11671;SDS011;5892;43.412;24.612;2022-09-09T08:44:06;6.72;;;2.90;;
11671;SDS011;5892;43.412;24.612;2022-09-09T08:46:39;7.05;;;2.90;;
11671;SDS011;5892;43.412;24.612;2022-09-09T08:49:18;7.28;;;3.00;;
11671;SDS011;5892;43.412;24.612;2022-09-09T08:51:56;6.55;;;3.20;;
11671;SDS011;5892;43.412;24.612;2022-09-09T08:54:24;6.85;;;3.33;;
11671;SDS011;5892;43.412;24.612;2022-09-09T08:56:55;5.78;;;3.00;;
11671;SDS011;5892;43.412;24.612;2022-09-09T08:59:22;6.28;;;3.10;;
11671;SDS011;5892;43.412;24.612;2022-09-09T09:01:51;6.25;;;3.60;;
11671;SDS011;5892;43.412;24.612;2022-09-09T09:07:20;6.38;;;2.92;;
11671;SDS011;5892;43.412;24.612;2022-09-09T09:09:57;4.85;;;3.00;;
11671;SDS011;5892;43.412;24.612;2022-09-09T09:12:29;5.45;;;3.30;;
11671;SDS011;5892;43.412;24.612;2022-09-09T09:15:09;6.10;;;3.15;;
11671;SDS011;5892;43.412;24.612;2022-09-09T09:17:48;5.88;;;2.97;;
11671;SDS011;5892;43.412;24.612;2022-09-09T09:20:18;12.98;;;3.20;;
11671;SDS011;5892;43.412;24.612;2022-09-09T09:22:52;6.35;;;3.45;;
11671;SDS011;5892;43.412;24.612;2022-09-09T09:25:25;4.35;;;2.83;;
11671;SDS011;5892;43.412;24.612;2022-09-09T09:27:58;5.97;;;3.33;;
11671;SDS011;5892;43.412;24.612;2022-09-09T09:30:28;4.90;;;3.10;;
11671;SDS011;5892;43.412;24.612;2022-09-09T09:33:01;5.60;;;2.83;;
11671;SDS011;5892;43.412;24.612;2022-09-09T09:35:33;6.75;;;3.13;;
11671;SDS011;5892;43.412;24.612;2022-09-09T09:38:00;8.77;;;3.42;;
11671;SDS011;5892;43.412;24.612;2022-09-09T09:40:28;7.80;;;3.30;;
11671;SDS011;5892;43.412;24.612;2022-09-09T09:42:56;9.88;;;2.88;;
11671;SDS011;5892;43.412;24.612;2022-09-09T09:45:28;8.18;;;3.97;;
11671;SDS011;5892;43.412;24.612;2022-09-09T09:47:59;4.35;;;3.30;;
11671;SDS011;5892;43.412;24.612;2022-09-09T09:50:30;6.22;;;3.00;;
11671;SDS011;5892;43.412;24.612;2022-09-09T09:53:02;7.30;;;3.30;;
11671;SDS011;5892;43.412;24.612;2022-09-09T09:55:31;6.93;;;3.20;;
11671;SDS011;5892;43.412;24.612;2022-09-09T09:58:03;4.93;;;3.40;;
11671;SDS011;5892;43.412;24.612;2022-09-09T10:00:30;6.03;;;3.30;;
11671;SDS011;5892;43.412;24.612;2022-09-09T10:02:59;7.72;;;3.47;;
11671;SDS011;5892;43.412;24.612;2022-09-09T10:05:27;8.00;;;3.47;;
11671;SDS011;5892;43.412;24.612;2022-09-09T10:08:04;7.28;;;3.47;;
11671;SDS011;5892;43.412;24.612;2022-09-09T10:10:35;8.50;;;3.30;;
11671;SDS011;5892;43.412;24.612;2022-09-09T10:13:10;9.38;;;3.58;;
11671;SDS011;5892;43.412;24.612;2022-09-09T10:15:44;8.35;;;3.50;;
11671;SDS011;5892;43.412;24.612;2022-09-09T10:18:25;5.68;;;3.28;;
11671;SDS011;5892;43.412;24.612;2022-09-09T10:21:06;5.55;;;3.28;;
11671;SDS011;5892;43.412;24.612;2022-09-09T10:23:50;6.28;;;3.53;;
11671;SDS011;5892;43.412;24.612;2022-09-09T10:26:34;8.68;;;3.50;;
11671;SDS011;5892;43.412;24.612;2022-09-09T10:29:18;9.40;;;3.42;;
11671;SDS011;5892;43.412;24.612;2022-09-09T10:32:02;7.57;;;3.20;;
11671;SDS011;5892;43.412;24.612;2022-09-09T10:34:46;7.15;;;3.42;;
11671;SDS011;5892;43.412;24.612;2022-09-09T10:37:26;8.73;;;3.50;;
11671;SDS011;5892;43.412;24.612;2022-09-09T10:40:05;5.78;;;3.40;;
11671;SDS011;5892;43.412;24.612;2022-09-09T10:42:47;5.93;;;3.28;;
11671;SDS011;5892;43.412;24.612;2022-09-09T10:45:16;10.38;;;3.58;;
11671;SDS011;5892;43.412;24.612;2022-09-09T10:50:42;6.13;;;3.67;;
11671;SDS011;5892;43.412;24.612;2022-09-09T10:53:18;11.15;;;3.15;;
11671;SDS011;5892;43.412;24.612;2022-09-09T10:55:57;7.20;;;2.95;;
11671;SDS011;5892;43.412;24.612;2022-09-09T10:58:30;10.18;;;3.08;;
11671;SDS011;5892;43.412;24.612;2022-09-09T11:01:06;11.15;;;3.50;;
11671;SDS011;5892;43.412;24.612;2022-09-09T11:03:39;11.50;;;3.50;;
11671;SDS011;5892;43.412;24.612;2022-09-09T11:06:09;7.25;;;3.13;;
11671;SDS011;5892;43.412;24.612;2022-09-09T11:08:41;6.22;;;3.20;;
11671;SDS011;5892;43.412;24.612;2022-09-09T11:11:11;10.98;;;3.38;;
11671;SDS011;5892;43.412;24.612;2022-09-09T11:13:44;8.13;;;3.63;;
11671;SDS011;5892;43.412;24.612;2022-09-09T11:16:21;6.35;;;3.10;;
11671;SDS011;5892;43.412;24.612;2022-09-09T11:21:23;6.38;;;3.60;;
11671;SDS011;5892;43.412;24.612;2022-09-09T11:23:56;7.90;;;3.42;;
11671;SDS011;5892;43.412;24.612;2022-09-09T11:26:30;7.63;;;3.65;;
11671;SDS011;5892;43.412;24.612;2022-09-09T11:29:06;7.70;;;3.47;;
11671;SDS011;5892;43.412;24.612;2022-09-09T11:31:53;11.65;;;3.67;;
11671;SDS011;5892;43.412;24.612;2022-09-09T11:34:37;10.60;;;3.90;;
11671;SDS011;5892;43.412;24.612;2022-09-09T11:37:15;10.43;;;3.88;;
11671;SDS011;5892;43.412;24.612;2022-09-09T11:42:46;19.02;;;4.10;;
11671;SDS011;5892;43.412;24.612;2022-09-09T11:45:22;6.45;;;3.60;;
11671;SDS011;5892;43.412;24.612;2022-09-09T11:47:54;14.80;;;3.80;;
11671;SDS011;5892;43.412;24.612;2022-09-09T11:50:29;8.95;;;3.88;;
11671;SDS011;5892;43.412;24.612;2022-09-09T11:55:47;7.60;;;3.65;;
11671;SDS011;5892;43.412;24.612;2022-09-09T11:58:27;11.85;;;3.75;;
11671;SDS011;5892;43.412;24.612;2022-09-09T12:01:12;15.50;;;4.18;;
11671;SDS011;5892;43.412;24.612;2022-09-09T12:06:43;9.50;;;4.10;;
11671;SDS011;5892;43.412;24.612;2022-09-09T12:09:22;10.88;;;4.22;;
11671;SDS011;5892;43.412;24.612;2022-09-09T12:11:53;8.80;;;3.92;;
11671;SDS011;5892;43.412;24.612;2022-09-09T12:14:38;8.13;;;4.10;;
11671;SDS011;5892;43.412;24.612;2022-09-09T12:17:21;7.65;;;4.07;;
11671;SDS011;5892;43.412;24.612;2022-09-09T12:19:59;11.95;;;3.75;;
11671;SDS011;5892;43.412;24.612;2022-09-09T12:22:32;11.18;;;4.00;;
11671;SDS011;5892;43.412;24.612;2022-09-09T12:25:08;8.57;;;3.90;;
11671;SDS011;5892;43.412;24.612;2022-09-09T12:27:48;11.93;;;4.40;;
11671;SDS011;5892;43.412;24.612;2022-09-09T12:30:29;14.77;;;4.07;;
11671;SDS011;5892;43.412;24.612;2022-09-09T12:33:06;12.57;;;4.40;;
11671;SDS011;5892;43.412;24.612;2022-09-09T12:35:37;6.90;;;3.85;;
11671;SDS011;5892;43.412;24.612;2022-09-09T12:38:06;6.15;;;3.90;;
11671;SDS011;5892;43.412;24.612;2022-09-09T12:40:40;7.50;;;4.28;;
11671;SDS011;5892;43.412;24.612;2022-09-09T12:43:16;8.00;;;4.10;;
11671;SDS011;5892;43.412;24.612;2022-09-09T12:45:47;10.02;;;4.15;;
11671;SDS011;5892;43.412;24.612;2022-09-09T12:48:21;10.85;;;4.38;;
11671;SDS011;5892;43.412;24.612;2022-09-09T12:50:55;10.02;;;4.13;;
11671;SDS011;5892;43.412;24.612;2022-09-09T12:53:22;10.03;;;4.80;;
11671;SDS011;5892;43.412;24.612;2022-09-09T12:55:52;7.95;;;4.38;;
11671;SDS011;5892;43.412;24.612;2022-09-09T12:58:22;7.37;;;4.63;;
11671;SDS011;5892;43.412;24.612;2022-09-09T13:00:52;8.87;;;5.07;;
11671;SDS011;5892;43.412;24.612;2022-09-09T13:03:21;13.80;;;4.90;;
11671;SDS011;5892;43.412;24.612;2022-09-09T13:05:50;10.60;;;5.03;;
11671;SDS011;5892;43.412;24.612;2022-09-09T13:08:18;14.93;;;4.53;;
11671;SDS011;5892;43.412;24.612;2022-09-09T13:10:46;10.20;;;4.97;;
11671;SDS011;5892;43.412;24.612;2022-09-09T13:13:20;11.37;;;5.10;;
11671;SDS011;5892;43.412;24.612;2022-09-09T13:15:50;11.67;;;5.10;;
11671;SDS011;5892;43.412;24.612;2022-09-09T13:18:21;13.77;;;4.83;;
11671;SDS011;5892;43.412;24.612;2022-09-09T13:20:50;10.17;;;4.60;;
11671;SDS011;5892;43.412;24.612;2022-09-09T13:23:18;13.17;;;5.10;;
11671;SDS011;5892;43.412;24.612;2022-09-09T13:25:52;16.43;;;4.80;;
11671;SDS011;5892;43.412;24.612;2022-09-09T13:28:20;8.97;;;4.87;;
11671;SDS011;5892;43.412;24.612;2022-09-09T13:30:57;10.00;;;4.60;;
11671;SDS011;5892;43.412;24.612;2022-09-09T13:33:29;11.23;;;4.60;;
11671;SDS011;5892;43.412;24.612;2022-09-09T13:36:03;12.83;;;4.90;;
11671;SDS011;5892;43.412;24.612;2022-09-09T13:38:32;10.43;;;4.67;;
11671;SDS011;5892;43.412;24.612;2022-09-09T13:41:02;15.50;;;4.90;;
11671;SDS011;5892;43.412;24.612;2022-09-09T13:43:31;11.87;;;4.63;;
11671;SDS011;5892;43.412;24.612;2022-09-09T13:46:03;10.50;;;4.77;;
11671;SDS011;5892;43.412;24.612;2022-09-09T13:48:32;8.97;;;4.40;;
11671;SDS011;5892;43.412;24.612;2022-09-09T13:51:00;10.93;;;4.50;;
11671;SDS011;5892;43.412;24.612;2022-09-09T13:53:33;11.17;;;4.63;;
11671;SDS011;5892;43.412;24.612;2022-09-09T13:56:01;8.73;;;4.20;;
11671;SDS011;5892;43.412;24.612;2022-09-09T13:58:27;10.17;;;5.13;;
11671;SDS011;5892;43.412;24.612;2022-09-09T14:00:55;10.55;;;4.80;;
11671;SDS011;5892;43.412;24.612;2022-09-09T14:03:23;6.57;;;4.60;;
11671;SDS011;5892;43.412;24.612;2022-09-09T14:05:50;11.27;;;4.82;;
11671;SDS011;5892;43.412;24.612;2022-09-09T14:08:24;9.73;;;4.75;;
11671;SDS011;5892;43.412;24.612;2022-09-09T14:10:53;11.07;;;4.33;;
11671;SDS011;5892;43.412;24.612;2022-09-09T14:13:24;11.33;;;5.00;;
11671;SDS011;5892;43.412;24.612;2022-09-09T14:15:51;12.90;;;4.80;;
11671;SDS011;5892;43.412;24.612;2022-09-09T14:18:18;8.70;;;4.60;;
11671;SDS011;5892;43.412;24.612;2022-09-09T14:20:48;7.50;;;4.53;;
11671;SDS011;5892;43.412;24.612;2022-09-09T14:23:16;10.88;;;5.00;;
11671;SDS011;5892;43.412;24.612;2022-09-09T14:25:43;13.53;;;4.80;;
11671;SDS011;5892;43.412;24.612;2022-09-09T14:28:12;10.27;;;5.50;;
11671;SDS011;5892;43.412;24.612;2022-09-09T14:30:40;15.03;;;4.90;;
11671;SDS011;5892;43.412;24.612;2022-09-09T14:33:08;9.60;;;5.10;;
11671;SDS011;5892;43.412;24.612;2022-09-09T14:35:39;10.57;;;5.03;;
11671;SDS011;5892;43.412;24.612;2022-09-09T14:38:08;13.07;;;4.83;;
11671;SDS011;5892;43.412;24.612;2022-09-09T14:40:35;11.90;;;5.37;;
11671;SDS011;5892;43.412;24.612;2022-09-09T14:43:03;7.83;;;5.13;;
11671;SDS011;5892;43.412;24.612;2022-09-09T14:45:31;12.93;;;5.30;;
11671;SDS011;5892;43.412;24.612;2022-09-09T14:47:58;15.83;;;5.33;;
11671;SDS011;5892;43.412;24.612;2022-09-09T14:50:25;12.57;;;5.60;;
11671;SDS011;5892;43.412;24.612;2022-09-09T14:52:52;12.43;;;5.30;;
11671;SDS011;5892;43.412;24.612;2022-09-09T14:55:20;11.97;;;5.10;;
11671;SDS011;5892;43.412;24.612;2022-09-09T14:57:47;11.70;;;5.57;;
11671;SDS011;5892;43.412;24.612;2022-09-09T15:00:15;18.63;;;5.23;;
11671;SDS011;5892;43.412;24.612;2022-09-09T15:02:42;14.50;;;5.37;;
11671;SDS011;5892;43.412;24.612;2022-09-09T15:05:08;13.80;;;5.57;;
11671;SDS011;5892;43.412;24.612;2022-09-09T15:07:35;12.60;;;5.40;;
11671;SDS011;5892;43.412;24.612;2022-09-09T15:10:03;11.63;;;5.40;;
11671;SDS011;5892;43.412;24.612;2022-09-09T15:12:33;15.27;;;5.83;;
11671;SDS011;5892;43.412;24.612;2022-09-09T15:15:00;13.60;;;5.30;;
11671;SDS011;5892;43.412;24.612;2022-09-09T15:17:27;14.67;;;5.60;;
11671;SDS011;5892;43.412;24.612;2022-09-09T15:19:54;12.70;;;5.70;;
11671;SDS011;5892;43.412;24.612;2022-09-09T15:22:21;9.30;;;5.10;;